createdAt,value
2017-09-14T00:01:02.247Z,23.30
2017-09-14T00:03:32.504Z,23.20
2017-09-14T00:06:01.586Z,23.30
2017-09-14T00:08:30.849Z,23.30
2017-09-14T00:11:00.151Z,23.30
2017-09-14T00:13:39.002Z,23.30
2017-09-14T00:16:08.280Z,23.30
2017-09-14T00:18:39.095Z,23.20
2017-09-14T00:21:09.093Z,23.20
2017-09-14T00:23:39.249Z,23.20
2017-09-14T00:26:08.516Z,23.20
2017-09-14T00:28:37.644Z,23.20
2017-09-14T00:31:07.067Z,23.20
2017-09-14T00:33:37.168Z,23.30
2017-09-14T00:36:06.161Z,23.30
2017-09-14T00:38:35.056Z,23.40
2017-09-14T00:41:05.584Z,23.30
2017-09-14T00:43:34.779Z,23.40
2017-09-14T00:46:03.669Z,23.30
2017-09-14T00:48:33.485Z,23.30
2017-09-14T00:51:02.376Z,23.30
2017-09-14T00:53:32.289Z,23.40
2017-09-14T00:56:01.383Z,23.40
2017-09-14T00:58:31.301Z,23.40
2017-09-14T01:01:00.089Z,23.50
2017-09-14T01:03:30.002Z,23.40
2017-09-14T01:05:58.997Z,23.30
2017-09-14T01:08:28.708Z,23.50
2017-09-14T01:10:57.803Z,23.50
2017-09-14T01:13:26.704Z,23.60
2017-09-14T01:15:55.994Z,23.60
2017-09-14T01:18:25.007Z,23.70
2017-09-14T01:20:54.392Z,23.60
2017-09-14T01:23:23.488Z,23.70
2017-09-14T01:25:53.609Z,23.70
2017-09-14T01:28:23.318Z,23.50
2017-09-14T01:30:53.256Z,23.50
2017-09-14T01:33:23.559Z,23.40
2017-09-14T01:35:52.962Z,23.50
2017-09-14T01:38:22.078Z,23.40
2017-09-14T01:40:51.970Z,23.40
2017-09-14T01:43:21.132Z,23.40
2017-09-14T01:45:50.032Z,23.40
2017-09-14T01:48:18.950Z,23.50
2017-09-14T01:50:47.740Z,23.40
2017-09-14T01:53:17.656Z,23.50
2017-09-14T01:55:47.363Z,23.50
2017-09-14T01:58:16.695Z,23.50
2017-09-14T02:00:49.091Z,23.50
2017-09-14T02:03:18.007Z,23.50
2017-09-14T02:05:48.572Z,23.50
2017-09-14T02:08:18.476Z,23.30
2017-09-14T02:10:47.412Z,23.30
2017-09-14T02:13:16.548Z,23.40
2017-09-14T02:15:45.566Z,23.30
2017-09-14T02:18:16.231Z,23.20
2017-09-14T02:20:45.118Z,23.30
2017-09-14T02:23:14.158Z,23.20
2017-09-14T02:25:44.101Z,23.20
2017-09-14T02:28:13.224Z,23.10
2017-09-14T02:30:43.037Z,23.20
2017-09-14T02:33:12.038Z,23.20
2017-09-14T02:35:41.093Z,23.30
2017-09-14T02:38:10.094Z,23.30
2017-09-14T02:40:40.715Z,23.30
2017-09-14T02:43:10.706Z,23.30
2017-09-14T02:45:39.768Z,23.30
2017-09-14T02:48:08.517Z,23.30
2017-09-14T02:50:37.617Z,23.20
2017-09-14T02:53:06.705Z,23.20
2017-09-14T02:55:35.527Z,23.10
2017-09-14T02:58:04.486Z,23.10
2017-09-14T03:00:34.198Z,23.10
2017-09-14T03:03:03.089Z,23.10
2017-09-14T03:05:33.004Z,23.00
2017-09-14T03:08:01.895Z,23.00
2017-09-14T03:10:30.788Z,23.00
2017-09-14T03:12:59.680Z,23.10
2017-09-14T03:15:28.575Z,23.10
2017-09-14T03:17:58.280Z,23.00
2017-09-14T03:20:27.436Z,23.00
2017-09-14T03:22:56.372Z,23.10
2017-09-14T03:25:25.168Z,23.10
2017-09-14T03:27:54.049Z,23.10
2017-09-14T03:30:22.939Z,23.10
2017-09-14T03:32:52.034Z,23.10
2017-09-14T03:35:21.028Z,23.10
2017-09-14T03:37:51.575Z,23.10
2017-09-14T03:40:20.448Z,23.10
2017-09-14T03:42:49.385Z,23.10
2017-09-14T03:45:18.541Z,23.10
2017-09-14T03:47:48.499Z,23.10
2017-09-14T03:50:18.212Z,23.10
2017-09-14T03:52:47.875Z,23.10
2017-09-14T03:55:16.781Z,23.10
2017-09-14T03:57:46.446Z,23.10
2017-09-14T04:00:15.508Z,23.10
2017-09-14T04:02:44.402Z,23.10
2017-09-14T04:05:13.224Z,23.10
2017-09-14T04:07:42.253Z,23.10
2017-09-14T04:10:11.220Z,23.10
2017-09-14T04:12:40.188Z,23.10
2017-09-14T04:15:09.882Z,23.10
2017-09-14T04:17:39.990Z,23.10
2017-09-14T04:20:11.453Z,23.10
2017-09-14T04:22:40.406Z,23.10
2017-09-14T04:25:09.507Z,23.10
2017-09-14T04:27:38.398Z,23.10
2017-09-14T04:30:07.514Z,23.10
2017-09-14T04:32:36.935Z,23.10
2017-09-14T04:35:06.598Z,23.10
2017-09-14T04:37:35.493Z,23.10
2017-09-14T04:40:05.203Z,23.20
2017-09-14T04:42:34.093Z,23.10
2017-09-14T04:45:03.805Z,23.20
2017-09-14T04:47:33.799Z,23.10
2017-09-14T04:50:02.754Z,23.20
2017-09-14T04:52:33.964Z,23.20
2017-09-14T04:55:03.126Z,23.10
2017-09-14T04:57:33.029Z,23.20
2017-09-14T05:00:02.453Z,23.20
2017-09-14T05:02:31.469Z,23.20
2017-09-14T05:05:00.369Z,23.20
2017-09-14T05:07:29.253Z,23.20
2017-09-14T05:09:58.248Z,23.20
2017-09-14T05:12:27.208Z,23.20
2017-09-14T05:14:56.136Z,23.20
2017-09-14T05:17:25.230Z,23.20
2017-09-14T05:19:54.322Z,23.10
2017-09-14T05:22:24.296Z,23.10
2017-09-14T05:24:53.544Z,23.20
2017-09-14T05:27:22.636Z,23.20
2017-09-14T05:29:51.522Z,23.20
2017-09-14T05:32:20.415Z,23.20
2017-09-14T05:34:49.629Z,23.20
2017-09-14T05:37:18.606Z,23.30
2017-09-14T05:39:47.805Z,23.30
2017-09-14T05:42:16.698Z,23.40
2017-09-14T05:44:45.726Z,23.40
2017-09-14T05:47:14.685Z,23.30
2017-09-14T05:49:43.577Z,23.40
2017-09-14T05:52:12.325Z,23.30
2017-09-14T05:54:41.457Z,23.40
2017-09-14T05:57:10.561Z,23.40
2017-09-14T05:59:39.611Z,23.40
2017-09-14T06:02:08.918Z,23.50
2017-09-14T06:04:37.840Z,23.40
2017-09-14T06:07:07.779Z,23.40
2017-09-14T06:09:37.668Z,23.40
2017-09-14T06:12:07.789Z,23.40
2017-09-14T06:14:36.883Z,23.40
2017-09-14T06:17:05.982Z,23.40
2017-09-14T06:19:34.871Z,23.40
2017-09-14T06:22:03.657Z,23.40
2017-09-14T06:24:32.639Z,23.40
2017-09-14T06:27:02.578Z,23.50
2017-09-14T06:29:31.797Z,23.50
2017-09-14T06:32:02.870Z,23.50
2017-09-14T06:34:32.324Z,23.60
2017-09-14T06:37:01.677Z,23.60
2017-09-14T06:39:30.872Z,23.60
2017-09-14T06:42:01.647Z,23.60
2017-09-14T06:44:31.673Z,23.60
2017-09-14T06:47:00.573Z,23.70
2017-09-14T06:49:29.447Z,23.70
2017-09-14T06:51:58.850Z,23.60
2017-09-14T06:54:27.742Z,23.60
2017-09-14T06:56:57.861Z,23.60
2017-09-14T07:04:53.712Z,23.60
2017-09-14T07:07:28.628Z,23.70
2017-09-14T07:09:58.974Z,23.70
2017-09-14T07:12:28.072Z,23.80
2017-09-14T07:14:57.454Z,23.90
2017-09-14T07:17:27.985Z,24.00
2017-09-14T07:19:57.153Z,24.10
2017-09-14T07:22:26.708Z,24.00
2017-09-14T07:24:57.162Z,24.10
2017-09-14T07:27:28.933Z,24.10
2017-09-14T07:30:01.587Z,24.10
2017-09-14T07:32:32.129Z,24.10
2017-09-14T07:35:01.761Z,24.10
2017-09-14T07:37:30.866Z,24.10
2017-09-14T07:40:00.746Z,24.20
2017-09-14T07:42:30.336Z,24.30
2017-09-14T07:44:59.448Z,24.20
2017-09-14T07:47:28.526Z,24.30
2017-09-14T07:49:58.141Z,24.30
2017-09-14T07:52:34.910Z,24.40
2017-09-14T07:55:08.854Z,24.50
2017-09-14T08:00:19.294Z,24.80
2017-09-14T08:02:48.608Z,24.90
2017-09-14T08:05:18.617Z,25.10
2017-09-14T08:07:47.953Z,25.20
2017-09-14T08:10:17.010Z,25.20
2017-09-14T08:12:48.293Z,25.20
2017-09-14T08:15:18.405Z,25.40
2017-09-14T08:17:48.631Z,25.20
2017-09-14T08:20:17.519Z,25.10
2017-09-14T08:22:46.895Z,25.20
2017-09-14T08:25:17.320Z,25.40
2017-09-14T08:27:47.369Z,25.50
2017-09-14T08:30:16.675Z,25.50
2017-09-14T08:32:54.818Z,25.20
2017-09-14T08:35:24.898Z,25.00
2017-09-14T08:37:54.807Z,25.00
2017-09-14T08:44:16.111Z,24.80
2017-09-14T08:46:45.597Z,25.00
2017-09-14T08:49:14.941Z,25.00
2017-09-14T08:51:44.124Z,25.00
2017-09-14T08:54:13.831Z,25.10
2017-09-14T08:56:43.120Z,25.10
2017-09-14T08:59:12.100Z,25.20
2017-09-14T09:01:41.384Z,25.30
2017-09-14T09:04:11.137Z,25.30
2017-09-14T09:06:40.508Z,25.60
2017-09-14T09:09:10.999Z,25.40
2017-09-14T09:11:40.327Z,25.60
2017-09-14T09:14:09.264Z,25.80
2017-09-14T09:16:39.588Z,25.70
2017-09-14T09:19:08.684Z,25.90
2017-09-14T09:21:37.853Z,26.10
2017-09-14T09:24:06.876Z,26.20
2017-09-14T09:26:37.222Z,26.00
2017-09-14T09:29:07.532Z,26.00
2017-09-14T09:31:36.631Z,26.00
2017-09-14T09:34:07.380Z,26.20
2017-09-14T09:36:36.460Z,26.10
2017-09-14T09:39:06.111Z,26.20
2017-09-14T09:41:35.318Z,26.40
2017-09-14T09:44:04.760Z,26.70
2017-09-14T09:46:34.598Z,27.00
2017-09-14T09:49:04.193Z,26.80
2017-09-14T09:51:34.360Z,26.80
2017-09-14T09:54:04.342Z,26.90
2017-09-14T09:56:35.363Z,26.50
2017-09-14T09:59:04.556Z,26.50
2017-09-14T10:01:34.331Z,26.40
2017-09-14T10:04:04.242Z,26.80
2017-09-14T10:06:33.724Z,26.80
2017-09-14T10:09:06.460Z,26.90
2017-09-14T10:11:36.407Z,26.60
2017-09-14T10:14:05.443Z,26.50
2017-09-14T10:16:34.590Z,26.90
2017-09-14T10:19:08.150Z,27.70
2017-09-14T10:21:37.296Z,27.70
2017-09-14T10:24:07.436Z,26.70
2017-09-14T10:26:36.906Z,26.70
2017-09-14T10:29:05.898Z,26.60
2017-09-14T10:31:34.850Z,26.50
2017-09-14T10:34:04.419Z,26.40
2017-09-14T10:36:35.827Z,26.70
2017-09-14T10:39:05.273Z,26.60
2017-09-14T10:41:34.457Z,27.10
2017-09-14T10:44:05.610Z,27.30
2017-09-14T10:46:36.845Z,26.90
2017-09-14T10:49:10.609Z,26.90
2017-09-14T10:51:40.595Z,26.70
2017-09-14T10:54:14.857Z,26.40
2017-09-14T10:56:49.321Z,26.50
2017-09-14T10:59:18.923Z,26.60
2017-09-14T11:01:50.565Z,27.00
2017-09-14T11:04:21.989Z,27.00
2017-09-14T11:06:53.134Z,26.80
2017-09-14T11:09:23.224Z,27.10
2017-09-14T11:11:57.139Z,27.30
2017-09-14T11:14:27.992Z,27.40
2017-09-14T11:16:59.116Z,27.70
2017-09-14T11:19:28.876Z,28.20
2017-09-14T11:21:58.502Z,28.00
2017-09-14T11:24:27.735Z,27.70
2017-09-14T11:26:57.391Z,27.70
2017-09-14T11:29:27.199Z,27.70
2017-09-14T11:31:56.205Z,27.70
2017-09-14T11:34:26.548Z,27.90
2017-09-14T11:36:55.714Z,28.40
2017-09-14T11:39:24.511Z,28.00
2017-09-14T11:41:53.428Z,28.00
2017-09-14T11:44:24.611Z,29.20
2017-09-14T11:46:53.736Z,29.20
2017-09-14T11:49:22.638Z,29.90
2017-09-14T11:51:54.264Z,30.40
2017-09-14T11:54:24.296Z,29.90
2017-09-14T11:56:53.607Z,29.80
2017-09-14T11:59:22.854Z,30.50
2017-09-14T12:01:53.061Z,31.80
2017-09-14T12:04:23.337Z,32.50
2017-09-14T12:06:53.872Z,32.40
2017-09-14T12:09:22.772Z,31.20
2017-09-14T12:11:52.073Z,31.00
2017-09-14T12:14:21.456Z,30.70
2017-09-14T12:16:50.684Z,30.60
2017-09-14T12:19:19.775Z,29.70
2017-09-14T12:21:48.897Z,29.60
2017-09-14T12:24:18.079Z,29.60
2017-09-14T12:26:48.772Z,28.80
2017-09-14T12:29:18.696Z,28.80
2017-09-14T12:31:49.145Z,28.80
2017-09-14T12:34:19.421Z,28.70
2017-09-14T12:36:48.996Z,28.70
2017-09-14T12:39:18.068Z,28.40
2017-09-14T12:41:48.048Z,29.10
2017-09-14T12:44:17.798Z,29.40
2017-09-14T12:46:47.204Z,29.30
2017-09-14T12:49:16.501Z,30.20
2017-09-14T12:51:45.960Z,30.30
2017-09-14T12:54:16.006Z,30.90
2017-09-14T12:56:45.379Z,30.90
2017-09-14T12:59:14.625Z,30.90
2017-09-14T13:01:43.714Z,30.40
2017-09-14T13:04:12.921Z,29.50
2017-09-14T13:06:43.852Z,28.60
2017-09-14T13:09:16.142Z,28.50
2017-09-14T13:11:46.133Z,27.70
2017-09-14T13:14:16.449Z,27.50
2017-09-14T13:16:45.473Z,27.40
2017-09-14T13:19:14.471Z,28.10
2017-09-14T13:21:44.826Z,28.30
2017-09-14T13:24:14.743Z,28.20
2017-09-14T13:26:43.909Z,27.80
2017-09-14T13:29:13.266Z,28.00
2017-09-14T13:31:43.214Z,28.30
2017-09-14T13:34:12.562Z,28.40
2017-09-14T13:36:42.260Z,28.60
2017-09-14T13:39:11.137Z,28.50
2017-09-14T13:41:40.976Z,27.80
2017-09-14T13:44:10.449Z,27.70
2017-09-14T13:46:39.494Z,27.60
2017-09-14T13:49:10.434Z,27.50
2017-09-14T13:51:40.755Z,27.20
2017-09-14T13:54:11.587Z,27.30
2017-09-14T13:56:42.102Z,27.20
2017-09-14T13:59:13.561Z,27.10
2017-09-14T14:01:43.795Z,26.60
2017-09-14T14:04:22.820Z,26.60
2017-09-14T14:06:53.979Z,26.50
2017-09-14T14:09:25.176Z,26.60
2017-09-14T14:11:55.692Z,26.50
2017-09-14T14:14:25.820Z,26.60
2017-09-14T14:16:56.230Z,26.40
2017-09-14T14:19:25.609Z,26.40
2017-09-14T14:21:55.240Z,26.60
2017-09-14T14:24:24.389Z,26.70
2017-09-14T14:26:53.647Z,26.90
2017-09-14T14:29:23.871Z,26.80
2017-09-14T14:31:53.884Z,26.80
2017-09-14T14:34:23.695Z,26.90
2017-09-14T14:36:53.432Z,27.10
2017-09-14T14:39:23.220Z,27.10
2017-09-14T14:41:53.737Z,27.10
2017-09-14T14:44:24.156Z,27.10
2017-09-14T14:46:53.592Z,26.80
2017-09-14T14:49:22.599Z,26.70
2017-09-14T14:51:52.024Z,26.60
2017-09-14T14:54:21.196Z,26.50
2017-09-14T14:56:51.183Z,26.30
2017-09-14T14:59:20.604Z,26.30
2017-09-14T15:01:50.042Z,25.80
2017-09-14T15:04:20.443Z,25.80
2017-09-14T15:06:49.573Z,25.50
2017-09-14T15:09:18.686Z,25.70
2017-09-14T15:11:47.756Z,25.80
2017-09-14T15:14:17.988Z,24.90
2017-09-14T15:16:47.358Z,24.80
2017-09-14T15:19:17.515Z,24.50
2017-09-14T15:21:46.817Z,24.10
2017-09-14T15:24:15.858Z,23.90
2017-09-14T15:26:45.768Z,23.80
2017-09-14T15:29:19.070Z,23.80
2017-09-14T15:31:49.463Z,23.70
2017-09-14T15:34:19.250Z,23.70
2017-09-14T15:36:49.234Z,23.70
2017-09-14T15:42:29.708Z,23.60
2017-09-14T15:45:05.225Z,23.60
2017-09-14T15:47:35.692Z,23.50
2017-09-14T15:50:11.508Z,23.30
2017-09-14T15:52:40.810Z,23.30
2017-09-14T15:55:10.350Z,23.20
2017-09-14T15:57:39.985Z,23.10
2017-09-14T16:00:09.351Z,23.10
2017-09-14T16:02:39.110Z,23.10
2017-09-14T16:05:09.291Z,23.10
2017-09-14T16:07:39.128Z,23.10
2017-09-14T16:10:08.616Z,23.10
2017-09-14T16:12:38.298Z,23.00
2017-09-14T16:15:07.491Z,23.00
2017-09-14T16:17:36.984Z,22.90
2017-09-14T16:20:06.378Z,22.70
2017-09-14T16:22:36.539Z,22.20
2017-09-14T16:25:05.911Z,22.20
2017-09-14T16:27:35.536Z,22.10
2017-09-14T16:30:04.914Z,22.00
2017-09-14T16:32:34.045Z,22.00
2017-09-14T16:35:04.185Z,21.90
2017-09-14T16:37:33.165Z,21.90
2017-09-14T16:40:03.025Z,22.00
2017-09-14T16:42:32.064Z,21.90
2017-09-14T16:45:01.263Z,22.00
2017-09-14T16:47:30.563Z,22.10
2017-09-14T16:50:00.842Z,22.20
2017-09-14T16:52:30.371Z,22.10
2017-09-14T16:54:59.884Z,22.10
2017-09-14T16:57:29.500Z,22.10
2017-09-14T16:59:59.072Z,22.20
2017-09-14T17:02:30.401Z,22.30
2017-09-14T17:05:01.277Z,22.40
2017-09-14T17:07:30.762Z,22.60
2017-09-14T17:10:00.573Z,22.60
2017-09-14T17:12:30.020Z,22.50
2017-09-14T17:14:59.852Z,22.60
2017-09-14T17:17:29.275Z,22.70
2017-09-14T17:19:59.171Z,22.80
2017-09-14T17:22:28.132Z,22.70
2017-09-14T17:24:57.547Z,22.80
2017-09-14T17:27:27.456Z,22.70
2017-09-14T17:29:56.589Z,22.70
2017-09-14T17:32:28.128Z,22.70
2017-09-14T17:34:58.860Z,22.80
2017-09-14T17:37:28.260Z,22.70
2017-09-14T17:39:58.029Z,22.70
2017-09-14T17:42:26.994Z,22.70
2017-09-14T17:44:57.007Z,22.80
2017-09-14T17:47:27.553Z,22.80
2017-09-14T17:49:57.357Z,22.80
2017-09-14T17:52:28.032Z,22.80
2017-09-14T17:54:59.725Z,22.80
2017-09-14T17:57:29.940Z,22.80
2017-09-14T18:00:00.981Z,22.80
2017-09-14T18:02:31.365Z,22.80
2017-09-14T18:05:00.798Z,22.80
2017-09-14T18:07:32.274Z,22.80
2017-09-14T18:10:02.387Z,22.80
2017-09-14T18:12:32.632Z,22.90
2017-09-14T18:15:04.302Z,22.90
2017-09-14T18:17:34.163Z,22.90
2017-09-14T18:20:05.234Z,23.00
2017-09-14T18:22:34.912Z,22.80
2017-09-14T18:25:04.036Z,22.80
2017-09-14T18:27:37.399Z,23.00
2017-09-14T18:30:07.013Z,22.90
2017-09-14T18:32:36.361Z,23.00
2017-09-14T18:35:07.819Z,23.00
2017-09-14T18:40:14.772Z,23.00
2017-09-14T18:42:48.222Z,22.90
2017-09-14T18:45:21.051Z,22.90
2017-09-14T18:47:55.844Z,23.00
2017-09-14T18:50:25.868Z,22.90
2017-09-14T18:53:02.206Z,23.00
2017-09-14T18:58:35.851Z,22.90
2017-09-14T19:01:08.986Z,22.80
2017-09-14T19:03:39.783Z,22.90
2017-09-14T19:06:15.972Z,22.80
2017-09-14T19:08:47.179Z,22.80
2017-09-14T19:11:26.612Z,22.90
2017-09-14T19:14:04.530Z,23.00
2017-09-14T19:16:34.478Z,23.00
2017-09-14T19:19:03.567Z,23.00
2017-09-14T19:21:32.679Z,23.10
2017-09-14T19:24:02.009Z,23.10
2017-09-14T19:26:32.980Z,23.20
2017-09-14T19:29:02.732Z,23.10
2017-09-14T19:31:32.481Z,23.10
2017-09-14T19:34:02.726Z,23.10
2017-09-14T19:36:33.038Z,23.20
2017-09-14T19:39:02.796Z,23.20
2017-09-14T19:41:32.826Z,23.10
2017-09-14T19:44:02.011Z,23.20
2017-09-14T19:46:32.017Z,23.20
2017-09-14T19:49:02.072Z,23.20
2017-09-14T19:51:31.136Z,23.10
2017-09-14T19:54:00.025Z,23.00
2017-09-14T19:56:29.963Z,23.00
2017-09-14T19:58:59.252Z,22.80
2017-09-14T20:01:28.285Z,22.90
2017-09-14T20:03:57.337Z,22.80
2017-09-14T20:06:27.280Z,22.80
2017-09-14T20:08:56.762Z,22.70
2017-09-14T20:11:26.253Z,22.70
2017-09-14T20:13:55.465Z,22.70
2017-09-14T20:16:26.599Z,22.70
2017-09-14T20:18:55.977Z,22.70
2017-09-14T20:21:24.991Z,22.60
2017-09-14T20:23:55.515Z,22.60
2017-09-14T20:26:24.823Z,22.50
2017-09-14T20:28:54.019Z,22.50
2017-09-14T20:31:23.320Z,22.50
2017-09-14T20:33:55.378Z,22.40
2017-09-14T20:36:25.444Z,22.30
2017-09-14T20:38:55.205Z,22.30
2017-09-14T20:41:25.218Z,22.30
2017-09-14T20:43:54.496Z,22.20
2017-09-14T20:46:24.052Z,22.20
2017-09-14T20:48:54.026Z,22.40
2017-09-14T20:51:24.548Z,22.40
2017-09-14T20:53:53.904Z,22.40
2017-09-14T20:56:23.010Z,22.40
2017-09-14T20:58:52.240Z,22.40
2017-09-14T21:01:21.465Z,22.40
2017-09-14T21:03:58.405Z,22.40
2017-09-14T21:06:27.997Z,22.30
2017-09-14T21:09:00.152Z,22.30
2017-09-14T21:11:31.853Z,22.10
2017-09-14T21:14:02.347Z,22.10
2017-09-14T21:16:31.826Z,22.20
2017-09-14T21:19:01.171Z,22.20
2017-09-14T21:21:31.246Z,22.00
2017-09-14T21:24:00.138Z,22.00
2017-09-14T21:26:29.447Z,21.90
2017-09-14T21:28:58.851Z,22.00
2017-09-14T21:31:28.061Z,22.00
2017-09-14T21:33:58.412Z,21.90
2017-09-14T21:36:27.995Z,21.90
2017-09-14T21:39:00.686Z,22.00
2017-09-14T21:41:30.896Z,22.00
2017-09-14T21:44:02.334Z,22.10
2017-09-14T21:46:41.900Z,22.10
2017-09-14T21:49:11.685Z,22.00
2017-09-14T21:51:42.499Z,22.00
2017-09-14T21:54:14.034Z,21.90
2017-09-14T21:56:44.847Z,21.90
2017-09-14T21:59:15.856Z,21.80
2017-09-14T22:01:47.306Z,21.80
2017-09-14T22:04:17.675Z,21.60
2017-09-14T22:06:49.322Z,21.20
2017-09-14T22:09:19.580Z,21.00
2017-09-14T22:11:50.836Z,20.90
2017-09-14T22:14:22.369Z,20.90
2017-09-14T22:17:00.988Z,20.90
2017-09-14T22:19:34.573Z,20.80
2017-09-14T22:22:05.074Z,20.80
2017-09-14T22:24:35.028Z,20.80
2017-09-14T22:27:05.760Z,20.80
2017-09-14T22:29:36.434Z,20.80
2017-09-14T22:32:07.333Z,20.80
2017-09-14T22:34:39.111Z,21.00
2017-09-14T22:37:10.385Z,21.00
2017-09-14T22:39:39.658Z,20.90
2017-09-14T22:42:09.840Z,20.90
2017-09-14T22:44:39.499Z,20.90
2017-09-14T22:47:10.068Z,21.00
2017-09-14T22:49:39.812Z,21.00
2017-09-14T22:52:10.262Z,20.90
2017-09-14T22:54:41.247Z,20.50
2017-09-14T22:57:11.108Z,18.70
2017-09-14T22:59:42.746Z,18.30
2017-09-14T23:02:12.142Z,18.20
2017-09-14T23:04:44.292Z,18.10
2017-09-14T23:07:14.750Z,18.00
2017-09-14T23:09:43.862Z,18.10
2017-09-14T23:12:14.695Z,18.10
2017-09-14T23:14:45.453Z,18.10
2017-09-14T23:17:15.929Z,18.30
2017-09-14T23:19:45.279Z,18.30
2017-09-14T23:22:14.271Z,18.30
2017-09-14T23:24:43.972Z,18.20
2017-09-14T23:27:12.985Z,18.10
2017-09-14T23:29:42.256Z,18.20
2017-09-14T23:32:12.469Z,18.20
2017-09-14T23:34:42.294Z,18.30
2017-09-14T23:37:12.181Z,18.30
2017-09-14T23:39:41.388Z,18.30
2017-09-14T23:42:11.556Z,18.30
2017-09-14T23:44:40.332Z,18.30
2017-09-14T23:47:09.859Z,18.20
2017-09-14T23:49:39.002Z,18.30
2017-09-14T23:52:08.351Z,18.20
2017-09-14T23:54:37.844Z,18.40
2017-09-14T23:57:06.940Z,18.40
2017-09-14T23:59:35.926Z,18.60
